sensor_id;sensor_type;location;lat;lon;timestamp;pressure;altitude;pressure_sealevel;temperature;humidity
18569;BME280;14780;48.316;-1.050;2023-08-20T00:00:39;99546.50;;;26.33;47.93
18569;BME280;14780;48.316;-1.050;2023-08-20T00:03:24;99543.50;;;26.30;47.90
18569;BME280;14780;48.316;-1.050;2023-08-20T00:06:09;99548.97;;;26.30;47.84
18569;BME280;14780;48.316;-1.050;2023-08-20T00:08:54;99553.63;;;26.29;47.73
18569;BME280;14780;48.316;-1.050;2023-08-20T00:11:38;99554.72;;;26.28;47.70
18569;BME280;14780;48.316;-1.050;2023-08-20T00:15:02;99550.06;;;26.29;47.69
18569;BME280;14780;48.316;-1.050;2023-08-20T00:17:50;99553.66;;;26.24;47.85
18569;BME280;14780;48.316;-1.050;2023-08-20T00:20:36;99554.50;;;26.20;47.96
18569;BME280;14780;48.316;-1.050;2023-08-20T00:23:20;99557.19;;;26.25;47.99
18569;BME280;14780;48.316;-1.050;2023-08-20T00:26:05;99550.91;;;26.24;47.88
18569;BME280;14780;48.316;-1.050;2023-08-20T00:28:50;99555.28;;;26.25;47.91
18569;BME280;14780;48.316;-1.050;2023-08-20T00:31:35;99552.28;;;26.22;48.03
18569;BME280;14780;48.316;-1.050;2023-08-20T00:34:20;99556.94;;;26.21;48.08
18569;BME280;14780;48.316;-1.050;2023-08-20T00:37:04;99553.66;;;26.19;48.05
18569;BME280;14780;48.316;-1.050;2023-08-20T00:39:49;99552.84;;;26.19;47.97
18569;BME280;14780;48.316;-1.050;2023-08-20T00:42:33;99554.75;;;26.23;48.03
18569;BME280;14780;48.316;-1.050;2023-08-20T00:45:18;99546.25;;;26.20;48.02
18569;BME280;14780;48.316;-1.050;2023-08-20T00:48:04;99553.38;;;26.21;47.97
18569;BME280;14780;48.316;-1.050;2023-08-20T00:50:49;99550.06;;;26.24;48.08
18569;BME280;14780;48.316;-1.050;2023-08-20T00:53:34;99554.19;;;26.21;48.13
18569;BME280;14780;48.316;-1.050;2023-08-20T00:56:18;99554.50;;;26.20;48.20
18569;BME280;14780;48.316;-1.050;2023-08-20T00:59:05;99545.97;;;26.21;48.05
18569;BME280;14780;48.316;-1.050;2023-08-20T01:01:50;99550.09;;;26.19;48.31
18569;BME280;14780;48.316;-1.050;2023-08-20T01:04:35;99551.19;;;26.18;48.19
18569;BME280;14780;48.316;-1.050;2023-08-20T01:10:46;99554.75;;;26.18;48.30
18569;BME280;14780;48.316;-1.050;2023-08-20T01:13:33;99550.38;;;26.17;48.39
18569;BME280;14780;48.316;-1.050;2023-08-20T01:16:18;99558.34;;;26.14;48.42
18569;BME280;14780;48.316;-1.050;2023-08-20T01:19:03;99553.38;;;26.16;48.36
18569;BME280;14780;48.316;-1.050;2023-08-20T01:31:03;99573.41;;;26.11;48.53
18569;BME280;14780;48.316;-1.050;2023-08-20T01:33:49;99564.66;;;26.09;48.48
18569;BME280;14780;48.316;-1.050;2023-08-20T01:36:34;99566.28;;;26.10;48.33
18569;BME280;14780;48.316;-1.050;2023-08-20T01:39:19;99570.41;;;26.13;48.19
18569;BME280;14780;48.316;-1.050;2023-08-20T01:42:04;99560.81;;;26.10;48.47
18569;BME280;14780;48.316;-1.050;2023-08-20T01:44:49;99567.91;;;26.06;48.50
18569;BME280;14780;48.316;-1.050;2023-08-20T01:47:34;99573.41;;;26.06;48.37
18569;BME280;14780;48.316;-1.050;2023-08-20T01:50:19;99569.56;;;26.07;48.35
18569;BME280;14780;48.316;-1.050;2023-08-20T01:53:04;99569.84;;;26.06;48.54
18569;BME280;14780;48.316;-1.050;2023-08-20T01:55:49;99571.75;;;26.05;48.34
18569;BME280;14780;48.316;-1.050;2023-08-20T01:58:34;99575.06;;;26.02;48.54
18569;BME280;14780;48.316;-1.050;2023-08-20T02:01:18;99576.16;;;26.06;48.38
18569;BME280;14780;48.316;-1.050;2023-08-20T02:04:03;99575.31;;;25.96;48.63
18569;BME280;14780;48.316;-1.050;2023-08-20T02:06:48;99580.28;;;25.99;48.51
18569;BME280;14780;48.316;-1.050;2023-08-20T02:09:32;99579.44;;;25.93;48.63
18569;BME280;14780;48.316;-1.050;2023-08-20T02:12:18;99584.94;;;25.98;48.44
18569;BME280;14780;48.316;-1.050;2023-08-20T02:15:03;99587.66;;;25.93;48.75
18569;BME280;14780;48.316;-1.050;2023-08-20T02:17:48;99578.91;;;25.96;48.57
18569;BME280;14780;48.316;-1.050;2023-08-20T02:20:33;99574.25;;;25.92;48.44
18569;BME280;14780;48.316;-1.050;2023-08-20T02:23:17;99572.31;;;25.97;48.46
18569;BME280;14780;48.316;-1.050;2023-08-20T02:26:02;99581.09;;;25.99;48.36
18569;BME280;14780;48.316;-1.050;2023-08-20T02:28:47;99581.66;;;25.96;48.50
18569;BME280;14780;48.316;-1.050;2023-08-20T02:31:31;99587.41;;;25.95;48.58
18569;BME280;14780;48.316;-1.050;2023-08-20T02:34:16;99584.91;;;25.93;48.59
18569;BME280;14780;48.316;-1.050;2023-08-20T02:37:01;99580.53;;;25.92;48.54
18569;BME280;14780;48.316;-1.050;2023-08-20T02:39:46;99582.19;;;25.93;48.43
18569;BME280;14780;48.316;-1.050;2023-08-20T02:42:30;99594.81;;;25.89;48.58
18569;BME280;14780;48.316;-1.050;2023-08-20T02:45:15;99589.84;;;25.91;48.58
18569;BME280;14780;48.316;-1.050;2023-08-20T02:48:00;99598.63;;;25.93;48.48
18569;BME280;14780;48.316;-1.050;2023-08-20T02:50:45;99592.06;;;25.89;48.66
18569;BME280;14780;48.316;-1.050;2023-08-20T02:53:30;99588.75;;;25.87;48.61
18569;BME280;14780;48.316;-1.050;2023-08-20T02:56:15;99587.13;;;25.96;48.50
18569;BME280;14780;48.316;-1.050;2023-08-20T02:58:59;99592.59;;;25.91;48.63
18569;BME280;14780;48.316;-1.050;2023-08-20T03:01:44;99590.41;;;25.93;48.52
18569;BME280;14780;48.316;-1.050;2023-08-20T03:04:28;99580.81;;;25.96;48.55
18569;BME280;14780;48.316;-1.050;2023-08-20T03:07:14;99592.34;;;25.93;48.49
18569;BME280;14780;48.316;-1.050;2023-08-20T03:09:58;99586.53;;;25.84;48.86
18569;BME280;14780;48.316;-1.050;2023-08-20T03:12:42;99587.38;;;25.85;48.70
18569;BME280;14780;48.316;-1.050;2023-08-20T03:15:28;99584.63;;;25.85;48.81
18569;BME280;14780;48.316;-1.050;2023-08-20T03:18:12;99586.53;;;25.84;48.74
18569;BME280;14780;48.316;-1.050;2023-08-20T03:20:57;99588.19;;;25.80;48.80
18569;BME280;14780;48.316;-1.050;2023-08-20T03:23:42;99579.41;;;25.78;48.82
18569;BME280;14780;48.316;-1.050;2023-08-20T03:26:26;99582.72;;;25.80;48.81
18569;BME280;14780;48.316;-1.050;2023-08-20T03:29:11;99587.63;;;25.78;48.77
18569;BME280;14780;48.316;-1.050;2023-08-20T03:31:55;99582.97;;;25.74;48.82
18569;BME280;14780;48.316;-1.050;2023-08-20T03:34:41;99577.75;;;25.77;48.85
18569;BME280;14780;48.316;-1.050;2023-08-20T03:37:26;99578.59;;;25.78;48.84
18569;BME280;14780;48.316;-1.050;2023-08-20T03:40:11;99583.25;;;25.77;48.84
18569;BME280;14780;48.316;-1.050;2023-08-20T03:42:56;99579.69;;;25.77;48.85
18569;BME280;14780;48.316;-1.050;2023-08-20T03:45:41;99587.34;;;25.75;48.95
18569;BME280;14780;48.316;-1.050;2023-08-20T03:48:26;99579.13;;;25.75;48.78
18569;BME280;14780;48.316;-1.050;2023-08-20T03:51:10;99570.63;;;25.76;48.73
18569;BME280;14780;48.316;-1.050;2023-08-20T03:53:55;99581.31;;;25.73;48.92
18569;BME280;14780;48.316;-1.050;2023-08-20T03:56:40;99575.84;;;25.73;48.83
18569;BME280;14780;48.316;-1.050;2023-08-20T03:59:25;99586.00;;;25.72;48.78
18569;BME280;14780;48.316;-1.050;2023-08-20T04:02:09;99579.94;;;25.70;49.00
18569;BME280;14780;48.316;-1.050;2023-08-20T04:04:54;99582.69;;;25.70;48.85
18569;BME280;14780;48.316;-1.050;2023-08-20T04:07:38;99581.31;;;25.68;49.05
18569;BME280;14780;48.316;-1.050;2023-08-20T04:10:23;99582.41;;;25.67;49.06
18569;BME280;14780;48.316;-1.050;2023-08-20T04:13:07;99586.53;;;25.69;49.05
18569;BME280;14780;48.316;-1.050;2023-08-20T04:15:52;99590.38;;;25.68;49.09
18569;BME280;14780;48.316;-1.050;2023-08-20T04:18:36;99583.25;;;25.67;49.16
18569;BME280;14780;48.316;-1.050;2023-08-20T04:21:21;99582.97;;;25.69;48.96
18569;BME280;14780;48.316;-1.050;2023-08-20T04:24:06;99583.53;;;25.71;48.85
18569;BME280;14780;48.316;-1.050;2023-08-20T04:26:51;99582.97;;;25.74;48.97
18569;BME280;14780;48.316;-1.050;2023-08-20T04:29:35;99588.16;;;25.70;48.95
18569;BME280;14780;48.316;-1.050;2023-08-20T04:32:20;99594.72;;;25.64;48.95
18569;BME280;14780;48.316;-1.050;2023-08-20T04:35:05;99599.13;;;25.70;48.87
18569;BME280;14780;48.316;-1.050;2023-08-20T04:37:50;99604.63;;;25.65;49.04
18569;BME280;14780;48.316;-1.050;2023-08-20T04:40:34;99600.22;;;25.64;49.23
18569;BME280;14780;48.316;-1.050;2023-08-20T04:43:19;99609.00;;;25.61;49.06
18569;BME280;14780;48.316;-1.050;2023-08-20T04:46:03;99604.59;;;25.60;49.35
18569;BME280;14780;48.316;-1.050;2023-08-20T04:48:48;99605.16;;;25.62;49.10
18569;BME280;14780;48.316;-1.050;2023-08-20T04:51:32;99604.63;;;25.65;49.05
18569;BME280;14780;48.316;-1.050;2023-08-20T04:54:17;99606.53;;;25.65;49.16
18569;BME280;14780;48.316;-1.050;2023-08-20T04:57:02;99604.03;;;25.63;49.04
18569;BME280;14780;48.316;-1.050;2023-08-20T04:59:47;99607.59;;;25.59;49.25
18569;BME280;14780;48.316;-1.050;2023-08-20T05:02:31;99602.69;;;25.56;49.28
18569;BME280;14780;48.316;-1.050;2023-08-20T05:05:16;99610.09;;;25.60;49.12
18569;BME280;14780;48.316;-1.050;2023-08-20T05:08:01;99610.66;;;25.57;49.14
18569;BME280;14780;48.316;-1.050;2023-08-20T05:10:46;99610.66;;;25.57;49.11
18569;BME280;14780;48.316;-1.050;2023-08-20T05:13:31;99613.94;;;25.59;48.91
18569;BME280;14780;48.316;-1.050;2023-08-20T05:16:15;99610.34;;;25.54;49.25
18569;BME280;14780;48.316;-1.050;2023-08-20T05:19:00;99611.44;;;25.53;49.11
18569;BME280;14780;48.316;-1.050;2023-08-20T05:21:44;99618.56;;;25.49;49.45
18569;BME280;14780;48.316;-1.050;2023-08-20T05:24:29;99624.34;;;25.57;49.11
18569;BME280;14780;48.316;-1.050;2023-08-20T05:27:15;99625.41;;;25.56;49.23
18569;BME280;14780;48.316;-1.050;2023-08-20T05:30:01;99616.13;;;25.57;49.24
18569;BME280;14780;48.316;-1.050;2023-08-20T05:32:47;99608.16;;;25.56;49.08
18569;BME280;14780;48.316;-1.050;2023-08-20T05:35:31;99614.16;;;25.53;49.37
18569;BME280;14780;48.316;-1.050;2023-08-20T05:38:16;99621.03;;;25.50;49.33
18569;BME280;14780;48.316;-1.050;2023-08-20T05:41:01;99627.06;;;25.52;49.36
18569;BME280;14780;48.316;-1.050;2023-08-20T05:43:46;99617.47;;;25.50;49.47
18569;BME280;14780;48.316;-1.050;2023-08-20T05:46:30;99619.38;;;25.49;49.74
18569;BME280;14780;48.316;-1.050;2023-08-20T05:49:15;99616.06;;;25.47;49.63
18569;BME280;14780;48.316;-1.050;2023-08-20T05:52:00;99617.19;;;25.51;49.52
18569;BME280;14780;48.316;-1.050;2023-08-20T05:54:45;99638.28;;;25.51;49.42
18569;BME280;14780;48.316;-1.050;2023-08-20T05:57:29;99648.72;;;25.54;49.41
18569;BME280;14780;48.316;-1.050;2023-08-20T06:00:15;99651.44;;;25.49;49.64
18569;BME280;14780;48.316;-1.050;2023-08-20T06:03:01;99658.56;;;25.50;49.68
18569;BME280;14780;48.316;-1.050;2023-08-20T06:05:46;99659.66;;;25.49;49.87
18569;BME280;14780;48.316;-1.050;2023-08-20T06:08:30;99659.88;;;25.42;49.86
18569;BME280;14780;48.316;-1.050;2023-08-20T06:11:15;99662.63;;;25.37;49.85
18569;BME280;14780;48.316;-1.050;2023-08-20T06:14:00;99669.09;;;25.16;50.08
18569;BME280;14780;48.316;-1.050;2023-08-20T06:16:44;99669.38;;;25.20;49.90
18569;BME280;14780;48.316;-1.050;2023-08-20T06:19:30;99674.56;;;25.16;49.88
18569;BME280;14780;48.316;-1.050;2023-08-20T06:22:14;99666.81;;;25.03;50.27
18569;BME280;14780;48.316;-1.050;2023-08-20T06:24:59;99661.66;;;25.12;50.05
18569;BME280;14780;48.316;-1.050;2023-08-20T06:27:43;99668.78;;;25.13;50.26
18569;BME280;14780;48.316;-1.050;2023-08-20T06:30:28;99657.00;;;25.12;50.37
18569;BME280;14780;48.316;-1.050;2023-08-20T06:33:12;99664.13;;;25.13;50.48
18569;BME280;14780;48.316;-1.050;2023-08-20T06:35:57;99661.41;;;25.18;50.54
18569;BME280;14780;48.316;-1.050;2023-08-20T06:38:42;99666.09;;;25.18;50.66
18569;BME280;14780;48.316;-1.050;2023-08-20T06:41:27;99666.84;;;25.08;51.31
18569;BME280;14780;48.316;-1.050;2023-08-20T06:44:11;99666.91;;;25.18;50.62
18569;BME280;14780;48.316;-1.050;2023-08-20T06:46:56;99671.28;;;25.14;50.64
18569;BME280;14780;48.316;-1.050;2023-08-20T06:49:40;99672.84;;;25.00;51.17
18569;BME280;14780;48.316;-1.050;2023-08-20T06:52:25;99675.88;;;25.04;50.79
18569;BME280;14780;48.316;-1.050;2023-08-20T06:55:10;99675.84;;;24.99;50.88
18569;BME280;14780;48.316;-1.050;2023-08-20T06:57:55;99677.78;;;25.03;50.90
18569;BME280;14780;48.316;-1.050;2023-08-20T07:00:39;99678.88;;;25.02;51.11
18569;BME280;14780;48.316;-1.050;2023-08-20T07:03:24;99677.44;;;24.95;51.07
18569;BME280;14780;48.316;-1.050;2023-08-20T07:06:10;99676.69;;;25.04;50.96
18569;BME280;14780;48.316;-1.050;2023-08-20T07:08:54;99669.53;;;24.93;51.29
18569;BME280;14780;48.316;-1.050;2023-08-20T07:11:39;99669.25;;;25.00;51.11
18569;BME280;14780;48.316;-1.050;2023-08-20T07:14:24;99681.06;;;25.00;51.08
18569;BME280;14780;48.316;-1.050;2023-08-20T07:17:09;99675.03;;;25.03;51.17
18569;BME280;14780;48.316;-1.050;2023-08-20T07:19:54;99674.28;;;25.13;50.84
18569;BME280;14780;48.316;-1.050;2023-08-20T07:22:38;99673.41;;;25.02;51.18
18569;BME280;14780;48.316;-1.050;2023-08-20T07:25:23;99678.84;;;24.97;51.33
18569;BME280;14780;48.316;-1.050;2023-08-20T07:28:08;99683.22;;;24.98;51.63
18569;BME280;14780;48.316;-1.050;2023-08-20T07:30:54;99689.72;;;24.87;51.84
18569;BME280;14780;48.316;-1.050;2023-08-20T07:33:39;99696.91;;;24.98;51.83
18569;BME280;14780;48.316;-1.050;2023-08-20T07:36:25;99702.97;;;25.05;51.79
18569;BME280;14780;48.316;-1.050;2023-08-20T07:39:10;99703.53;;;25.07;51.74
18569;BME280;14780;48.316;-1.050;2023-08-20T07:41:55;99697.28;;;25.17;51.63
18569;BME280;14780;48.316;-1.050;2023-08-20T07:44:39;99693.75;;;25.21;51.68
18569;BME280;14780;48.316;-1.050;2023-08-20T07:47:24;99696.50;;;25.21;51.50
18569;BME280;14780;48.316;-1.050;2023-08-20T07:50:08;99693.75;;;25.21;51.41
18569;BME280;14780;48.316;-1.050;2023-08-20T07:52:53;99705.53;;;25.22;51.90
18569;BME280;14780;48.316;-1.050;2023-08-20T07:55:38;99703.94;;;25.31;51.22
18569;BME280;14780;48.316;-1.050;2023-08-20T07:58:22;99711.66;;;25.34;51.29
18569;BME280;14780;48.316;-1.050;2023-08-20T08:01:07;99715.25;;;25.44;50.84
18569;BME280;14780;48.316;-1.050;2023-08-20T08:03:52;99716.28;;;25.33;51.43
18569;BME280;14780;48.316;-1.050;2023-08-20T08:06:37;99715.78;;;25.41;51.48
18569;BME280;14780;48.316;-1.050;2023-08-20T08:09:28;99716.94;;;25.50;50.87
18569;BME280;14780;48.316;-1.050;2023-08-20T08:12:13;99709.50;;;25.46;51.45
18569;BME280;14780;48.316;-1.050;2023-08-20T08:14:58;99713.66;;;25.53;51.44
18569;BME280;14780;48.316;-1.050;2023-08-20T08:17:43;99714.72;;;25.47;51.21
18569;BME280;14780;48.316;-1.050;2023-08-20T08:20:29;99725.66;;;25.42;51.41
18569;BME280;14780;48.316;-1.050;2023-08-20T08:23:13;99725.66;;;25.42;51.33
18569;BME280;14780;48.316;-1.050;2023-08-20T08:25:58;99730.06;;;25.43;51.58
18569;BME280;14780;48.316;-1.050;2023-08-20T08:28:44;99729.22;;;25.43;51.62
18569;BME280;14780;48.316;-1.050;2023-08-20T08:31:28;99732.53;;;25.50;51.49
18569;BME280;14780;48.316;-1.050;2023-08-20T08:34:13;99734.97;;;25.41;51.44
18569;BME280;14780;48.316;-1.050;2023-08-20T08:36:58;99729.22;;;25.43;51.46
18569;BME280;14780;48.316;-1.050;2023-08-20T08:39:43;99737.69;;;25.36;51.99
18569;BME280;14780;48.316;-1.050;2023-08-20T08:42:27;99738.78;;;25.40;51.41
18569;BME280;14780;48.316;-1.050;2023-08-20T08:45:13;99738.81;;;25.45;51.87
18569;BME280;14780;48.316;-1.050;2023-08-20T08:47:58;99738.78;;;25.40;51.43
18569;BME280;14780;48.316;-1.050;2023-08-20T08:50:43;99737.72;;;25.46;51.66
18569;BME280;14780;48.316;-1.050;2023-08-20T08:53:27;99741.03;;;25.48;51.56
18569;BME280;14780;48.316;-1.050;2023-08-20T08:56:14;99739.16;;;25.54;51.47
18569;BME280;14780;48.316;-1.050;2023-08-20T08:58:58;99740.22;;;25.53;52.00
18569;BME280;14780;48.316;-1.050;2023-08-20T09:01:43;99735.53;;;25.43;52.06
18569;BME280;14780;48.316;-1.050;2023-08-20T09:04:28;99734.97;;;25.41;51.68
18569;BME280;14780;48.316;-1.050;2023-08-20T09:07:14;99744.00;;;25.42;51.94
18569;BME280;14780;48.316;-1.050;2023-08-20T09:10:00;99743.78;;;25.53;51.53
18569;BME280;14780;48.316;-1.050;2023-08-20T09:12:44;99744.41;;;25.65;51.45
18569;BME280;14780;48.316;-1.050;2023-08-20T09:15:33;99740.56;;;25.66;51.60
18569;BME280;14780;48.316;-1.050;2023-08-20T09:18:20;99740.56;;;25.66;51.51
18569;BME280;14780;48.316;-1.050;2023-08-20T09:21:07;99745.47;;;25.59;51.64
18569;BME280;14780;48.316;-1.050;2023-08-20T09:23:53;99737.81;;;25.66;51.18
18569;BME280;14780;48.316;-1.050;2023-08-20T09:26:37;99737.00;;;25.71;51.11
18569;BME280;14780;48.316;-1.050;2023-08-20T09:29:23;99738.06;;;25.60;51.25
18569;BME280;14780;48.316;-1.050;2023-08-20T09:32:07;99741.94;;;25.69;50.89
18569;BME280;14780;48.316;-1.050;2023-08-20T09:34:54;99737.31;;;25.74;51.04
18569;BME280;14780;48.316;-1.050;2023-08-20T09:37:39;99749.06;;;25.75;50.69
18569;BME280;14780;48.316;-1.050;2023-08-20T09:40:24;99738.94;;;25.75;50.54
18569;BME280;14780;48.316;-1.050;2023-08-20T09:43:10;99739.50;;;25.77;50.74
18569;BME280;14780;48.316;-1.050;2023-08-20T09:45:59;99740.88;;;25.80;51.12
18569;BME280;14780;48.316;-1.050;2023-08-20T09:48:49;99738.16;;;25.85;50.65
18569;BME280;14780;48.316;-1.050;2023-08-20T09:51:36;99728.84;;;25.86;50.57
18569;BME280;14780;48.316;-1.050;2023-08-20T09:54:28;99732.44;;;25.91;51.03
18569;BME280;14780;48.316;-1.050;2023-08-20T09:57:39;99736.81;;;25.87;50.69
18569;BME280;14780;48.316;-1.050;2023-08-20T10:00:24;99734.66;;;25.94;50.91
18569;BME280;14780;48.316;-1.050;2023-08-20T10:03:09;99739.28;;;25.89;50.93
18569;BME280;14780;48.316;-1.050;2023-08-20T10:05:55;99741.25;;;26.03;50.94
18569;BME280;14780;48.316;-1.050;2023-08-20T10:08:42;99741.53;;;26.07;50.66
18569;BME280;14780;48.316;-1.050;2023-08-20T10:11:27;99746.47;;;26.10;50.92
18569;BME280;14780;48.316;-1.050;2023-08-20T10:14:12;99745.66;;;26.14;51.13
18569;BME280;14780;48.316;-1.050;2023-08-20T10:16:57;99752.28;;;26.23;51.67
18569;BME280;14780;48.316;-1.050;2023-08-20T10:19:44;99745.69;;;26.34;52.01
18569;BME280;14780;48.316;-1.050;2023-08-20T10:22:43;99742.94;;;26.34;51.71
18569;BME280;14780;48.316;-1.050;2023-08-20T10:25:30;99741.84;;;26.40;51.32
18569;BME280;14780;48.316;-1.050;2023-08-20T10:28:27;99746.25;;;26.46;51.42
18569;BME280;14780;48.316;-1.050;2023-08-20T10:31:15;99744.03;;;26.48;51.17
18569;BME280;14780;48.316;-1.050;2023-08-20T10:34:01;99741.88;;;26.45;51.23
18569;BME280;14780;48.316;-1.050;2023-08-20T10:36:50;99753.38;;;26.47;50.27
18569;BME280;14780;48.316;-1.050;2023-08-20T10:39:35;99754.50;;;26.51;50.56
18569;BME280;14780;48.316;-1.050;2023-08-20T10:42:26;99748.44;;;26.49;50.40
18569;BME280;14780;48.316;-1.050;2023-08-20T10:45:11;99750.69;;;26.52;50.25
18569;BME280;14780;48.316;-1.050;2023-08-20T10:47:58;99758.34;;;26.55;50.45
18569;BME280;14780;48.316;-1.050;2023-08-20T10:50:42;99763.03;;;26.60;50.33
18569;BME280;14780;48.316;-1.050;2023-08-20T10:53:27;99757.00;;;26.58;50.37
18569;BME280;14780;48.316;-1.050;2023-08-20T10:56:17;99764.66;;;26.61;50.19
18569;BME280;14780;48.316;-1.050;2023-08-20T10:59:10;99762.75;;;26.66;50.34
18569;BME280;14780;48.316;-1.050;2023-08-20T11:01:58;99757.28;;;26.66;50.03
18569;BME280;14780;48.316;-1.050;2023-08-20T11:04:43;99758.34;;;26.70;49.91
18569;BME280;14780;48.316;-1.050;2023-08-20T11:07:28;99755.88;;;26.74;50.14
18569;BME280;14780;48.316;-1.050;2023-08-20T11:10:18;99755.63;;;26.75;50.03
18569;BME280;14780;48.316;-1.050;2023-08-20T11:13:03;99749.88;;;26.77;49.58
18569;BME280;14780;48.316;-1.050;2023-08-20T11:15:50;99754.53;;;26.81;49.97
18569;BME280;14780;48.316;-1.050;2023-08-20T11:18:35;99761.94;;;26.86;49.87
18569;BME280;14780;48.316;-1.050;2023-08-20T11:21:20;99760.25;;;26.90;49.67
18569;BME280;14780;48.316;-1.050;2023-08-20T11:24:06;99751.50;;;26.93;49.37
18569;BME280;14780;48.316;-1.050;2023-08-20T11:26:54;99747.91;;;26.92;49.64
18569;BME280;14780;48.316;-1.050;2023-08-20T11:29:42;99747.06;;;26.97;49.47
18569;BME280;14780;48.316;-1.050;2023-08-20T11:32:31;99739.94;;;27.01;49.09
18569;BME280;14780;48.316;-1.050;2023-08-20T11:35:16;99744.59;;;27.05;49.21
18569;BME280;14780;48.316;-1.050;2023-08-20T11:38:02;99744.88;;;27.09;48.83
18569;BME280;14780;48.316;-1.050;2023-08-20T11:40:47;99744.03;;;27.13;49.12
18569;BME280;14780;48.316;-1.050;2023-08-20T11:43:33;99745.16;;;27.17;48.89
18569;BME280;14780;48.316;-1.050;2023-08-20T11:46:20;99750.66;;;27.17;48.58
18569;BME280;14780;48.316;-1.050;2023-08-20T11:49:09;99750.63;;;27.22;48.66
18569;BME280;14780;48.316;-1.050;2023-08-20T11:51:56;99749.53;;;27.23;48.81
18569;BME280;14780;48.316;-1.050;2023-08-20T11:54:42;99746.75;;;27.28;48.68
18569;BME280;14780;48.316;-1.050;2023-08-20T11:57:29;99753.63;;;27.26;48.49
18569;BME280;14780;48.316;-1.050;2023-08-20T12:00:25;99750.88;;;27.31;48.84
18569;BME280;14780;48.316;-1.050;2023-08-20T12:03:11;99741.25;;;27.38;48.36
18569;BME280;14780;48.316;-1.050;2023-08-20T12:05:57;99747.81;;;27.37;48.40
18569;BME280;14780;48.316;-1.050;2023-08-20T12:08:41;99745.66;;;27.34;48.54
18569;BME280;14780;48.316;-1.050;2023-08-20T12:11:27;99743.75;;;27.35;48.42
18569;BME280;14780;48.316;-1.050;2023-08-20T12:14:12;99737.41;;;27.39;48.27
18569;BME280;14780;48.316;-1.050;2023-08-20T12:16:57;99747.81;;;27.47;48.27
18569;BME280;14780;48.316;-1.050;2023-08-20T12:19:42;99746.44;;;27.50;48.72
18569;BME280;14780;48.316;-1.050;2023-08-20T12:22:27;99745.06;;;27.52;48.44
18569;BME280;14780;48.316;-1.050;2023-08-20T12:25:11;99749.44;;;27.53;48.19
18569;BME280;14780;48.316;-1.050;2023-08-20T12:27:56;99751.56;;;27.66;48.06
18569;BME280;14780;48.316;-1.050;2023-08-20T12:30:41;99747.50;;;27.59;48.26
18569;BME280;14780;48.316;-1.050;2023-08-20T12:33:25;99748.00;;;27.71;47.96
18569;BME280;14780;48.316;-1.050;2023-08-20T12:36:10;99746.06;;;27.76;47.81
18569;BME280;14780;48.316;-1.050;2023-08-20T12:38:55;99746.31;;;27.75;48.07
18569;BME280;14780;48.316;-1.050;2023-08-20T12:41:41;99746.59;;;27.78;48.15
18569;BME280;14780;48.316;-1.050;2023-08-20T12:44:26;99756.22;;;27.86;47.95
18569;BME280;14780;48.316;-1.050;2023-08-20T12:47:10;99749.88;;;27.85;48.08
18569;BME280;14780;48.316;-1.050;2023-08-20T12:49:55;99748.72;;;27.96;47.85
18569;BME280;14780;48.316;-1.050;2023-08-20T12:52:40;99754.19;;;28.01;47.84
18569;BME280;14780;48.316;-1.050;2023-08-20T12:55:25;99753.13;;;27.97;47.64
18569;BME280;14780;48.316;-1.050;2023-08-20T12:58:10;99750.31;;;28.02;47.72
18569;BME280;14780;48.316;-1.050;2023-08-20T13:00:55;99754.16;;;28.06;47.53
18569;BME280;14780;48.316;-1.050;2023-08-20T13:03:40;99745.59;;;28.13;47.48
18569;BME280;14780;48.316;-1.050;2023-08-20T13:06:25;99753.53;;;28.19;47.43
18569;BME280;14780;48.316;-1.050;2023-08-20T13:09:11;99746.91;;;28.20;47.09
18569;BME280;14780;48.316;-1.050;2023-08-20T13:11:57;99748.56;;;28.21;47.32
18569;BME280;14780;48.316;-1.050;2023-08-20T13:14:45;99745.78;;;28.26;47.08
18569;BME280;14780;48.316;-1.050;2023-08-20T13:17:30;99751.81;;;28.28;47.31
18569;BME280;14780;48.316;-1.050;2023-08-20T13:20:16;99739.69;;;28.34;46.75
18569;BME280;14780;48.316;-1.050;2023-08-20T13:23:05;99747.38;;;28.37;47.11
18569;BME280;14780;48.316;-1.050;2023-08-20T13:25:50;99741.00;;;28.42;47.25
18569;BME280;14780;48.316;-1.050;2023-08-20T13:28:35;99746.50;;;28.42;47.12
18569;BME280;14780;48.316;-1.050;2023-08-20T13:31:19;99754.22;;;28.45;46.88
18569;BME280;14780;48.316;-1.050;2023-08-20T13:34:04;99743.97;;;28.50;46.71
18569;BME280;14780;48.316;-1.050;2023-08-20T13:36:48;99753.31;;;28.54;46.90
18569;BME280;14780;48.316;-1.050;2023-08-20T13:39:33;99742.31;;;28.54;46.78
18569;BME280;14780;48.316;-1.050;2023-08-20T13:42:18;99747.19;;;28.62;46.77
18569;BME280;14780;48.316;-1.050;2023-08-20T13:45:03;99746.91;;;28.64;46.62
18569;BME280;14780;48.316;-1.050;2023-08-20T13:47:48;99745.22;;;28.68;46.54
18569;BME280;14780;48.316;-1.050;2023-08-20T13:50:33;99739.72;;;28.68;46.35
18569;BME280;14780;48.316;-1.050;2023-08-20T13:53:18;99744.34;;;28.72;46.60
18569;BME280;14780;48.316;-1.050;2023-08-20T13:56:02;99743.53;;;28.72;46.49
18569;BME280;14780;48.316;-1.050;2023-08-20T13:58:47;99746.53;;;28.75;46.41
18569;BME280;14780;48.316;-1.050;2023-08-20T14:01:32;99740.19;;;28.75;46.17
18569;BME280;14780;48.316;-1.050;2023-08-20T14:04:16;99747.06;;;28.77;46.45
18569;BME280;14780;48.316;-1.050;2023-08-20T14:07:01;99739.84;;;28.81;46.29
18569;BME280;14780;48.316;-1.050;2023-08-20T14:09:46;99738.22;;;28.80;46.32
18569;BME280;14780;48.316;-1.050;2023-08-20T14:12:31;99732.94;;;28.83;46.07
18569;BME280;14780;48.316;-1.050;2023-08-20T14:15:16;99731.56;;;28.86;46.20
18569;BME280;14780;48.316;-1.050;2023-08-20T14:18:01;99732.66;;;28.85;46.04
18569;BME280;14780;48.316;-1.050;2023-08-20T14:20:46;99732.91;;;28.88;45.02
18569;BME280;14780;48.316;-1.050;2023-08-20T14:23:30;99737.34;;;28.84;44.96
18569;BME280;14780;48.316;-1.050;2023-08-20T14:26:15;99732.06;;;28.88;45.88
18569;BME280;14780;48.316;-1.050;2023-08-20T14:29:01;99728.75;;;28.91;45.69
18569;BME280;14780;48.316;-1.050;2023-08-20T14:31:45;99726.81;;;28.91;45.71
18569;BME280;14780;48.316;-1.050;2023-08-20T14:34:30;99728.19;;;28.94;45.59
18569;BME280;14780;48.316;-1.050;2023-08-20T14:37:15;99729.28;;;28.93;44.93